Time;durP1;ratioP1;P1;durP2;ratioP2;P2;SDS_P1;SDS_P2;PMS_P1;PMS_P2;Temp;Humidity;BMP_temperature;BMP_pressure;BME280_temperature;BME280_humidity;BME280_pressure;Samples;Min_cycle;Max_cycle;Signal;HPM_P1;HPM_P2
2024/01/08 00:00:17;;;;;;;15.43;14.68;;;;;;;;;;6142622;28;20050;-95
2024/01/08 00:03:19;;;;;;;16.33;15.63;;;;;;;;;;6143193;28;20043;-95
2024/01/08 00:06:21;;;;;;;15.35;14.77;;;;;;;;;;6147091;28;20075;-95
2024/01/08 00:09:23;;;;;;;16.88;16.08;;;;;;;;;;6144628;28;20856;-95
2024/01/08 00:12:25;;;;;;;13.70;12.80;;;;;;;;;;6146379;28;20058;-95
2024/01/08 00:15:27;;;;;;;16.50;15.80;;;;;;;;;;6139089;28;20095;-96
2024/01/08 00:18:29;;;;;;;12.20;11.50;;;;;;;;;;6144256;28;20208;-95
2024/01/08 00:21:31;;;;;;;12.68;11.98;;;;;;;;;;6144453;28;20497;-95
2024/01/08 00:24:33;;;;;;;15.52;14.85;;;;;;;;;;6141583;28;20070;-96
2024/01/08 00:27:35;;;;;;;11.65;11.15;;;;;;;;;;6154415;28;20051;-95
2024/01/08 00:30:37;;;;;;;17.70;17.02;;;;;;;;;;6143317;28;20093;-95
2024/01/08 00:33:39;;;;;;;15.93;15.02;;;;;;;;;;6124621;29;20534;-96
2024/01/08 00:36:41;;;;;;;15.30;14.75;;;;;;;;;;6138846;28;20508;-95
2024/01/08 00:39:43;;;;;;;16.75;16.05;;;;;;;;;;6135921;28;20048;-96
2024/01/08 00:42:45;;;;;;;13.13;12.43;;;;;;;;;;6133700;28;20568;-95
2024/01/08 00:45:47;;;;;;;11.35;10.80;;;;;;;;;;6156667;28;20482;-95
2024/01/08 00:48:50;;;;;;;14.23;13.38;;;;;;;;;;6142794;28;20019;-96
2024/01/08 00:51:52;;;;;;;14.68;13.57;;;;;;;;;;6147088;28;20649;-95
2024/01/08 00:54:54;;;;;;;12.75;12.15;;;;;;;;;;6148785;28;20457;-95
2024/01/08 00:57:58;;;;;;;10.40;10.00;;;;;;;;;;6136502;28;20195;-96
2024/01/08 01:01:00;;;;;;;10.90;10.50;;;;;;;;;;6136705;28;20039;-96
2024/01/08 01:04:02;;;;;;;11.98;11.38;;;;;;;;;;6120633;28;20054;-96
2024/01/08 01:07:04;;;;;;;10.30;9.90;;;;;;;;;;6142556;28;20043;-95
2024/01/08 01:10:07;;;;;;;13.23;12.73;;;;;;;;;;6137303;28;20134;-95
2024/01/08 01:13:09;;;;;;;15.10;14.50;;;;;;;;;;6145594;28;20409;-96
2024/01/08 01:16:11;;;;;;;17.50;16.70;;;;;;;;;;6133766;28;20417;-96
2024/01/08 01:19:13;;;;;;;18.00;17.00;;;;;;;;;;6142277;28;20050;-95
2024/01/08 01:22:15;;;;;;;14.85;13.90;;;;;;;;;;6127622;29;20809;-95
2024/01/08 01:25:17;;;;;;;14.80;13.90;;;;;;;;;;6134653;29;20046;-94
2024/01/08 01:28:19;;;;;;;15.88;15.23;;;;;;;;;;6143031;28;20565;-96
2024/01/08 01:31:21;;;;;;;14.13;13.32;;;;;;;;;;6138204;28;20047;-95
2024/01/08 01:34:24;;;;;;;16.08;15.27;;;;;;;;;;6151051;28;20039;-94
2024/01/08 01:37:26;;;;;;;13.52;12.93;;;;;;;;;;6132145;28;20035;-95
2024/01/08 01:40:28;;;;;;;17.90;16.70;;;;;;;;;;6132352;28;20047;-96
2024/01/08 01:43:31;;;;;;;13.98;13.30;;;;;;;;;;6139554;28;20082;-95
2024/01/08 01:46:44;;;;;;;14.80;13.95;;;;;;;;;;6138387;28;20490;-95
2024/01/08 01:49:47;;;;;;;12.38;11.93;;;;;;;;;;6136075;28;20043;-96
2024/01/08 01:52:49;;;;;;;11.43;11.00;;;;;;;;;;6136629;28;20058;-95
2024/01/08 01:55:52;;;;;;;11.57;11.07;;;;;;;;;;6128813;28;20086;-94
2024/01/08 01:58:56;;;;;;;13.55;13.05;;;;;;;;;;6146526;28;20062;-94
2024/01/08 02:01:58;;;;;;;12.68;11.80;;;;;;;;;;6132788;28;20043;-95
2024/01/08 02:05:01;;;;;;;12.75;12.20;;;;;;;;;;6135965;28;20051;-94
2024/01/08 02:08:03;;;;;;;12.60;12.00;;;;;;;;;;6134469;29;20051;-94
2024/01/08 02:11:05;;;;;;;13.50;12.93;;;;;;;;;;6140410;28;20141;-94
2024/01/08 02:14:07;;;;;;;11.88;11.27;;;;;;;;;;6137945;28;20048;-94
2024/01/08 02:17:09;;;;;;;15.10;14.25;;;;;;;;;;6152768;28;20038;-95
2024/01/08 02:20:11;;;;;;;11.55;11.07;;;;;;;;;;6141291;28;20483;-95
2024/01/08 02:23:13;;;;;;;9.82;9.30;;;;;;;;;;6139294;28;20051;-95
2024/01/08 02:26:16;;;;;;;17.20;15.90;;;;;;;;;;6136403;28;20055;-95
2024/01/08 02:29:19;;;;;;;12.00;11.55;;;;;;;;;;6137276;28;20099;-95
2024/01/08 02:32:21;;;;;;;12.88;12.25;;;;;;;;;;6137925;28;20142;-96
2024/01/08 02:35:23;;;;;;;10.15;9.77;;;;;;;;;;6144053;28;20047;-94
2024/01/08 02:38:25;;;;;;;10.73;10.23;;;;;;;;;;6141062;28;20047;-95
2024/01/08 02:41:27;;;;;;;11.48;10.98;;;;;;;;;;6141278;28;20043;-95
2024/01/08 02:44:29;;;;;;;11.05;10.45;;;;;;;;;;6141617;28;20047;-95
2024/01/08 02:47:33;;;;;;;10.88;10.23;;;;;;;;;;6139981;28;20055;-95
2024/01/08 02:50:35;;;;;;;9.65;9.07;;;;;;;;;;6142136;28;20354;-94
2024/01/08 02:53:37;;;;;;;8.95;8.57;;;;;;;;;;6137958;28;20486;-94
2024/01/08 02:56:39;;;;;;;8.60;8.30;;;;;;;;;;6133788;28;20035;-93
2024/01/08 02:59:41;;;;;;;9.27;8.77;;;;;;;;;;6140453;28;20051;-95
2024/01/08 03:02:43;;;;;;;8.80;8.23;;;;;;;;;;6154900;28;20051;-94
2024/01/08 03:05:45;;;;;;;7.18;6.88;;;;;;;;;;6133856;28;20067;-94
2024/01/08 03:08:47;;;;;;;6.00;5.78;;;;;;;;;;6123730;29;20050;-95
2024/01/08 03:11:49;;;;;;;6.97;6.68;;;;;;;;;;6135182;29;20046;-96
2024/01/08 03:14:51;;;;;;;6.28;6.05;;;;;;;;;;6135981;28;20568;-95
2024/01/08 03:17:53;;;;;;;6.50;6.15;;;;;;;;;;6141479;28;20474;-95
2024/01/08 03:20:55;;;;;;;7.07;6.50;;;;;;;;;;6143348;28;20375;-95
2024/01/08 03:23:57;;;;;;;6.90;6.60;;;;;;;;;;6140841;28;20126;-95
2024/01/08 03:26:59;;;;;;;7.22;6.68;;;;;;;;;;6140265;28;20575;-95
2024/01/08 03:30:01;;;;;;;5.90;5.70;;;;;;;;;;6146772;28;20047;-94
2024/01/08 03:33:03;;;;;;;7.38;7.07;;;;;;;;;;6131386;28;20051;-95
2024/01/08 03:36:08;;;;;;;6.45;6.22;;;;;;;;;;6144944;28;20498;-95
2024/01/08 03:39:12;;;;;;;7.88;7.32;;;;;;;;;;6139754;28;20043;-94
2024/01/08 03:42:14;;;;;;;6.72;6.45;;;;;;;;;;6144880;28;20055;-95
2024/01/08 03:45:16;;;;;;;6.68;6.35;;;;;;;;;;6144437;28;20051;-93
2024/01/08 03:48:18;;;;;;;7.38;7.07;;;;;;;;;;6145079;28;20366;-95
2024/01/08 03:51:19;;;;;;;9.20;8.80;;;;;;;;;;6145370;28;20614;-95
2024/01/08 03:54:21;;;;;;;7.25;6.95;;;;;;;;;;6143685;28;20051;-95
2024/01/08 03:57:23;;;;;;;8.07;7.60;;;;;;;;;;6144869;28;20102;-94
2024/01/08 04:00:25;;;;;;;9.68;8.85;;;;;;;;;;6144551;28;20050;-94
2024/01/08 04:03:27;;;;;;;8.73;8.32;;;;;;;;;;6144011;28;20054;-95
2024/01/08 04:06:29;;;;;;;8.10;7.80;;;;;;;;;;6141693;28;20051;-95
2024/01/08 04:09:31;;;;;;;9.60;9.07;;;;;;;;;;6128140;28;20067;-94
2024/01/08 04:12:33;;;;;;;9.98;9.55;;;;;;;;;;6123648;29;20054;-95
2024/01/08 04:15:35;;;;;;;9.75;9.30;;;;;;;;;;6145672;28;20521;-96
2024/01/08 04:18:37;;;;;;;10.38;9.98;;;;;;;;;;6143911;28;20227;-95
2024/01/08 04:21:39;;;;;;;9.48;8.95;;;;;;;;;;6135094;28;20047;-95
2024/01/08 04:24:41;;;;;;;10.65;10.15;;;;;;;;;;6142251;28;20043;-96
2024/01/08 04:27:43;;;;;;;11.55;10.95;;;;;;;;;;6144817;28;20039;-95
2024/01/08 04:30:45;;;;;;;11.40;10.80;;;;;;;;;;6150150;28;20051;-95
2024/01/08 04:33:48;;;;;;;13.13;12.63;;;;;;;;;;6137568;28;20097;-95
2024/01/08 04:36:51;;;;;;;11.32;10.93;;;;;;;;;;6144242;28;20152;-96
2024/01/08 04:39:53;;;;;;;12.68;12.23;;;;;;;;;;6137132;28;20414;-95
2024/01/08 04:42:55;;;;;;;10.93;10.52;;;;;;;;;;6136891;28;20055;-96
2024/01/08 04:45:56;;;;;;;10.15;9.65;;;;;;;;;;6137410;28;20106;-95
2024/01/08 04:48:59;;;;;;;8.32;7.93;;;;;;;;;;6147278;28;20047;-96
2024/01/08 04:52:02;;;;;;;9.88;9.38;;;;;;;;;;6140410;28;20601;-95
2024/01/08 04:55:04;;;;;;;8.90;8.45;;;;;;;;;;6136613;29;20043;-96
2024/01/08 04:58:06;;;;;;;8.50;8.18;;;;;;;;;;6142665;28;20521;-96
2024/01/08 05:01:08;;;;;;;8.88;8.48;;;;;;;;;;6143653;28;20050;-96
2024/01/08 05:04:10;;;;;;;9.32;8.85;;;;;;;;;;6136179;28;20035;-96
2024/01/08 05:07:14;;;;;;;9.48;9.05;;;;;;;;;;6138631;28;20121;-96
2024/01/08 05:10:15;;;;;;;10.02;9.48;;;;;;;;;;6143789;28;20530;-96
2024/01/08 05:13:18;;;;;;;8.05;7.65;;;;;;;;;;6158196;28;20047;-96
2024/01/08 05:16:20;;;;;;;9.82;9.43;;;;;;;;;;6141260;28;20039;-96
2024/01/08 05:19:22;;;;;;;8.88;8.48;;;;;;;;;;6130362;28;20066;-95
2024/01/08 05:22:24;;;;;;;9.05;8.65;;;;;;;;;;6143646;28;20553;-95
2024/01/08 05:25:26;;;;;;;9.13;8.73;;;;;;;;;;6128210;28;20051;-96
2024/01/08 05:28:28;;;;;;;9.30;8.75;;;;;;;;;;6137974;29;20513;-96
2024/01/08 05:31:30;;;;;;;7.28;6.97;;;;;;;;;;6137760;28;20051;-96
2024/01/08 05:34:33;;;;;;;8.05;7.65;;;;;;;;;;6136000;28;20055;-95
2024/01/08 05:37:35;;;;;;;7.80;7.40;;;;;;;;;;6141400;28;20181;-96
2024/01/08 05:40:36;;;;;;;8.77;8.38;;;;;;;;;;6136274;28;20039;-96
2024/01/08 05:43:38;;;;;;;8.90;8.52;;;;;;;;;;6139601;28;20094;-96
2024/01/08 05:46:43;;;;;;;9.68;9.27;;;;;;;;;;6136521;28;20079;-96
2024/01/08 05:49:46;;;;;;;9.43;8.82;;;;;;;;;;6134506;28;20414;-95
2024/01/08 05:52:48;;;;;;;8.52;8.07;;;;;;;;;;6142267;28;20051;-96
2024/01/08 05:55:49;;;;;;;8.15;7.72;;;;;;;;;;6152799;28;20055;-96
2024/01/08 05:58:52;;;;;;;8.02;7.63;;;;;;;;;;6134969;28;20057;-96
2024/01/08 06:01:53;;;;;;;8.82;8.43;;;;;;;;;;6134029;28;20047;-96
2024/01/08 06:04:56;;;;;;;8.63;8.05;;;;;;;;;;6135827;28;20050;-96
2024/01/08 06:08:00;;;;;;;8.50;7.82;;;;;;;;;;6140035;28;20568;-96
2024/01/08 06:11:03;;;;;;;8.13;7.50;;;;;;;;;;6153558;28;20058;-95
2024/01/08 06:14:06;;;;;;;8.35;7.95;;;;;;;;;;6131953;28;20058;-96
2024/01/08 06:17:09;;;;;;;8.10;7.78;;;;;;;;;;6131208;28;20039;-96
2024/01/08 06:20:12;;;;;;;12.90;8.70;;;;;;;;;;6137627;28;20054;-95
2024/01/08 06:23:14;;;;;;;10.18;9.60;;;;;;;;;;6136808;28;20035;-96
2024/01/08 06:26:16;;;;;;;8.98;8.35;;;;;;;;;;6131904;28;20039;-96
2024/01/08 06:29:19;;;;;;;9.02;8.63;;;;;;;;;;6141773;29;20568;-94
2024/01/08 06:32:20;;;;;;;8.25;7.85;;;;;;;;;;6142205;28;20170;-95
2024/01/08 06:35:23;;;;;;;8.20;7.80;;;;;;;;;;6137609;28;20055;-95
2024/01/08 06:38:25;;;;;;;7.63;7.32;;;;;;;;;;6141626;29;20054;-93
2024/01/08 06:41:27;;;;;;;7.90;7.50;;;;;;;;;;6149987;28;20094;-93
2024/01/08 06:44:29;;;;;;;7.80;7.50;;;;;;;;;;6138783;28;20043;-94
2024/01/08 06:47:32;;;;;;;7.60;7.25;;;;;;;;;;6148828;28;20039;-94
2024/01/08 06:50:36;;;;;;;8.52;8.02;;;;;;;;;;6140176;28;20501;-94
2024/01/08 06:53:39;;;;;;;9.57;9.18;;;;;;;;;;6141791;28;20046;-94
2024/01/08 06:56:41;;;;;;;9.38;8.80;;;;;;;;;;6138152;28;20039;-94
2024/01/08 06:59:43;;;;;;;9.00;8.60;;;;;;;;;;6142790;28;20051;-93
2024/01/08 07:02:48;;;;;;;7.88;7.50;;;;;;;;;;6139415;29;20535;-94
2024/01/08 07:05:50;;;;;;;8.25;7.95;;;;;;;;;;6139240;28;20054;-94
2024/01/08 07:08:52;;;;;;;7.80;7.40;;;;;;;;;;6137227;29;20171;-94
2024/01/08 07:11:55;;;;;;;8.10;7.70;;;;;;;;;;6145341;28;20039;-94
2024/01/08 07:14:57;;;;;;;6.70;6.47;;;;;;;;;;6133097;28;20516;-94
2024/01/08 07:17:59;;;;;;;6.60;6.40;;;;;;;;;;6139709;28;20095;-93
2024/01/08 07:21:01;;;;;;;9.32;7.28;;;;;;;;;;6146640;28;20281;-94
2024/01/08 07:24:03;;;;;;;7.25;6.95;;;;;;;;;;6149235;29;20051;-94
2024/01/08 07:27:05;;;;;;;7.47;7.18;;;;;;;;;;6142599;28;20047;-94
2024/01/08 07:30:09;;;;;;;6.88;6.57;;;;;;;;;;6157228;28;20083;-94
2024/01/08 07:33:13;;;;;;;10.02;9.35;;;;;;;;;;6139223;28;20054;-94
2024/01/08 07:36:15;;;;;;;7.35;7.03;;;;;;;;;;6141410;28;20047;-94
2024/01/08 07:39:16;;;;;;;8.15;7.75;;;;;;;;;;6137339;29;20048;-94
2024/01/08 07:42:18;;;;;;;6.95;6.40;;;;;;;;;;6141064;28;20043;-95
2024/01/08 07:45:23;;;;;;;8.07;7.78;;;;;;;;;;6141948;28;20043;-95
2024/01/08 07:48:26;;;;;;;7.40;7.10;;;;;;;;;;6133690;29;20160;-95
2024/01/08 07:51:28;;;;;;;7.57;6.95;;;;;;;;;;6125870;28;20051;-94
2024/01/08 07:54:34;;;;;;;7.35;7.05;;;;;;;;;;6141369;28;20438;-93
2024/01/08 07:57:36;;;;;;;8.13;7.82;;;;;;;;;;6125616;29;20446;-95
2024/01/08 08:00:38;;;;;;;8.45;7.95;;;;;;;;;;6133692;29;20132;-94
2024/01/08 08:03:39;;;;;;;6.90;6.60;;;;;;;;;;6142379;28;20047;-95
2024/01/08 08:06:42;;;;;;;7.55;7.25;;;;;;;;;;6153599;28;20232;-94
2024/01/08 08:09:46;;;;;;;7.65;7.25;;;;;;;;;;6142612;28;20039;-94
2024/01/08 08:12:48;;;;;;;7.88;7.55;;;;;;;;;;6141914;28;20043;-94
2024/01/08 08:15:50;;;;;;;8.02;7.63;;;;;;;;;;6147170;28;20521;-95
2024/01/08 08:18:52;;;;;;;7.97;7.40;;;;;;;;;;6129850;28;20058;-94
2024/01/08 08:21:54;;;;;;;7.22;6.85;;;;;;;;;;6137821;28;20058;-94
2024/01/08 08:24:56;;;;;;;6.40;6.20;;;;;;;;;;6144562;28;20129;-94
2024/01/08 08:27:58;;;;;;;7.45;7.05;;;;;;;;;;6146441;28;20043;-94
2024/01/08 08:31:00;;;;;;;6.32;6.13;;;;;;;;;;6142006;28;20327;-94
2024/01/08 08:34:03;;;;;;;7.38;7.07;;;;;;;;;;6134405;28;20122;-93
2024/01/08 08:37:11;;;;;;;9.00;8.50;;;;;;;;;;6143822;28;20047;-95
2024/01/08 08:40:14;;;;;;;9.35;8.52;;;;;;;;;;6120373;29;20122;-94
2024/01/08 08:43:16;;;;;;;11.00;6.72;;;;;;;;;;6146046;28;20493;-95
2024/01/08 08:46:18;;;;;;;5.75;5.55;;;;;;;;;;6144815;28;20409;-94
2024/01/08 08:49:20;;;;;;;6.78;6.45;;;;;;;;;;6155439;28;20083;-94
2024/01/08 08:52:22;;;;;;;6.55;6.28;;;;;;;;;;6139323;28;20553;-95
2024/01/08 08:55:25;;;;;;;6.22;5.68;;;;;;;;;;6144938;28;20055;-96
2024/01/08 08:58:28;;;;;;;7.07;6.78;;;;;;;;;;6146027;28;20046;-94
2024/01/08 09:01:31;;;;;;;7.57;7.13;;;;;;;;;;6156220;28;20133;-95
2024/01/08 09:04:34;;;;;;;6.43;6.18;;;;;;;;;;6142772;28;20039;-95
2024/01/08 09:07:36;;;;;;;7.20;6.90;;;;;;;;;;6134706;28;20047;-96
2024/01/08 09:10:38;;;;;;;7.35;7.05;;;;;;;;;;6138055;28;20050;-94
2024/01/08 09:13:40;;;;;;;6.60;6.30;;;;;;;;;;6140181;29;20043;-94
2024/01/08 09:16:42;;;;;;;7.13;6.78;;;;;;;;;;6143452;28;20528;-95
2024/01/08 09:19:44;;;;;;;6.47;6.28;;;;;;;;;;6143286;28;20508;-95
2024/01/08 09:22:51;;;;;;;6.32;6.13;;;;;;;;;;6139457;28;20035;-95
2024/01/08 09:25:53;;;;;;;6.85;6.50;;;;;;;;;;6141238;28;20051;-95
2024/01/08 09:28:55;;;;;;;7.57;6.93;;;;;;;;;;6127696;29;20043;-94
2024/01/08 09:31:57;;;;;;;6.45;6.05;;;;;;;;;;6146797;28;20096;-95
2024/01/08 09:34:59;;;;;;;6.93;6.43;;;;;;;;;;6147026;28;20047;-94
2024/01/08 09:38:02;;;;;;;7.78;7.38;;;;;;;;;;6137509;29;20406;-95
2024/01/08 09:41:04;;;;;;;6.90;6.55;;;;;;;;;;6141926;28;20058;-95
2024/01/08 09:44:21;;;;;;;7.30;6.88;;;;;;;;;;6140048;28;20062;-95
2024/01/08 09:47:24;;;;;;;7.93;7.40;;;;;;;;;;6142658;28;20049;-95
2024/01/08 09:50:26;;;;;;;7.13;6.72;;;;;;;;;;6137182;28;20588;-95
2024/01/08 09:53:29;;;;;;;6.95;6.65;;;;;;;;;;6139748;28;20048;-95
2024/01/08 09:56:31;;;;;;;6.80;6.50;;;;;;;;;;6133562;29;20075;-95
2024/01/08 09:59:33;;;;;;;6.45;6.15;;;;;;;;;;6140348;28;20133;-95
2024/01/08 10:02:36;;;;;;;7.63;7.28;;;;;;;;;;6133650;29;20344;-95
2024/01/08 10:05:39;;;;;;;7.68;7.28;;;;;;;;;;6129799;29;20498;-94
2024/01/08 10:08:41;;;;;;;6.18;5.97;;;;;;;;;;6140127;29;20043;-95
2024/01/08 10:11:44;;;;;;;6.82;6.53;;;;;;;;;;6150835;28;20585;-94
2024/01/08 10:14:46;;;;;;;6.15;5.95;;;;;;;;;;6137686;28;20134;-94
2024/01/08 10:17:51;;;;;;;7.70;7.10;;;;;;;;;;6155455;28;20051;-96
2024/01/08 10:21:15;;;;;;;6.47;6.18;;;;;;;;;;6133202;28;20039;-94
2024/01/08 10:24:23;;;;;;;6.88;6.57;;;;;;;;;;6134612;28;20055;-95
2024/01/08 10:27:26;;;;;;;6.85;6.40;;;;;;;;;;6153495;28;20097;-96
2024/01/08 10:30:28;;;;;;;6.38;6.07;;;;;;;;;;6141549;28;20559;-95
2024/01/08 10:33:30;;;;;;;7.03;6.72;;;;;;;;;;6142470;28;20055;-95
2024/01/08 10:36:33;;;;;;;8.15;7.70;;;;;;;;;;6135081;28;20105;-96
2024/01/08 10:39:36;;;;;;;6.72;6.43;;;;;;;;;;6151623;28;20043;-95
2024/01/08 10:42:51;;;;;;;6.18;5.90;;;;;;;;;;6131453;28;20573;-96
2024/01/08 10:45:57;;;;;;;6.95;6.65;;;;;;;;;;6142330;28;20068;-95
2024/01/08 10:49:01;;;;;;;7.40;6.97;;;;;;;;;;6136649;29;20138;-95
2024/01/08 10:52:14;;;;;;;7.78;7.30;;;;;;;;;;6137164;28;20053;-95
2024/01/08 10:55:16;;;;;;;7.65;7.25;;;;;;;;;;6133588;28;20043;-95
2024/01/08 10:58:24;;;;;;;7.75;7.35;;;;;;;;;;6131921;28;20051;-95
2024/01/08 11:01:26;;;;;;;7.68;7.25;;;;;;;;;;6155798;28;20560;-94
2024/01/08 11:04:30;;;;;;;6.45;6.15;;;;;;;;;;6141178;28;20035;-95
2024/01/08 11:07:35;;;;;;;7.28;6.97;;;;;;;;;;6141020;28;20051;-96
2024/01/08 11:10:38;;;;;;;7.47;7.07;;;;;;;;;;6141354;28;20051;-95
2024/01/08 11:13:40;;;;;;;7.05;6.75;;;;;;;;;;6127791;29;20435;-95
2024/01/08 11:16:43;;;;;;;7.25;6.85;;;;;;;;;;6131987;29;20604;-96
2024/01/08 11:19:45;;;;;;;6.97;6.63;;;;;;;;;;6141132;28;20138;-95
2024/01/08 11:22:47;;;;;;;7.03;6.72;;;;;;;;;;6141135;28;21135;-95
2024/01/08 11:25:50;;;;;;;7.47;6.97;;;;;;;;;;6130749;28;20043;-96
2024/01/08 11:29:05;;;;;;;7.15;6.75;;;;;;;;;;6140328;29;20221;-94
2024/01/08 11:32:26;;;;;;;7.60;7.28;;;;;;;;;;6133181;28;20075;-95
2024/01/08 11:35:28;;;;;;;;;;;;;;;;;;6136439;28;20066;-95
2024/01/08 11:38:31;;;;;;;7.28;6.97;;;;;;;;;;6134116;28;20057;-95
2024/01/08 11:41:34;;;;;;;6.93;6.57;;;;;;;;;;6129479;28;20055;-94
2024/01/08 11:44:36;;;;;;;6.93;6.63;;;;;;;;;;6154696;28;20039;-95
2024/01/08 11:47:38;;;;;;;6.93;6.47;;;;;;;;;;6144738;28;20054;-96
2024/01/08 11:50:43;;;;;;;8.15;7.38;;;;;;;;;;6143410;28;20051;-96
2024/01/08 11:53:47;;;;;;;7.10;6.80;;;;;;;;;;6158708;28;20623;-95
2024/01/08 11:56:49;;;;;;;7.60;7.00;;;;;;;;;;6143788;28;20039;-95
2024/01/08 11:59:52;;;;;;;6.85;6.53;;;;;;;;;;6144158;29;20143;-95
2024/01/08 12:03:04;;;;;;;7.68;7.28;;;;;;;;;;6140005;28;20043;-95
2024/01/08 12:06:07;;;;;;;6.80;6.38;;;;;;;;;;6142715;28;20101;-96
2024/01/08 12:09:09;;;;;;;7.50;7.03;;;;;;;;;;6135624;28;20166;-95
2024/01/08 12:12:11;;;;;;;8.35;7.78;;;;;;;;;;6138455;28;20043;-95
2024/01/08 12:15:14;;;;;;;7.07;6.75;;;;;;;;;;6140873;28;20150;-95
2024/01/08 12:18:17;;;;;;;7.78;7.22;;;;;;;;;;6135148;28;20043;-95
2024/01/08 12:21:19;;;;;;;7.78;7.28;;;;;;;;;;6142017;28;20051;-96
2024/01/08 12:24:21;;;;;;;7.20;6.90;;;;;;;;;;6133448;29;20043;-96
2024/01/08 12:27:31;;;;;;;7.03;6.55;;;;;;;;;;6149928;28;20395;-95
2024/01/08 12:30:34;;;;;;;7.10;6.80;;;;;;;;;;6136289;29;20052;-95
2024/01/08 12:33:36;;;;;;;7.15;6.53;;;;;;;;;;6147273;28;20078;-95
2024/01/08 12:36:38;;;;;;;6.82;6.53;;;;;;;;;;6139746;28;20054;-95
2024/01/08 12:39:40;;;;;;;7.50;7.10;;;;;;;;;;6142207;29;20051;-95
2024/01/08 12:42:43;;;;;;;7.45;7.05;;;;;;;;;;6135567;28;20513;-95
2024/01/08 12:45:50;;;;;;;7.45;6.97;;;;;;;;;;6129472;28;20035;-95
2024/01/08 12:48:52;;;;;;;7.38;6.80;;;;;;;;;;6121327;29;20512;-95
2024/01/08 12:51:56;;;;;;;6.40;6.10;;;;;;;;;;6141722;28;20087;-94
2024/01/08 12:54:58;;;;;;;7.20;6.90;;;;;;;;;;6138204;29;20043;-93
2024/01/08 12:58:01;;;;;;;9.52;8.85;;;;;;;;;;6140867;28;20039;-94
2024/01/08 13:01:03;;;;;;;7.63;7.28;;;;;;;;;;6138858;28;20513;-95
2024/01/08 13:04:05;;;;;;;8.20;7.60;;;;;;;;;;6141319;28;20112;-94
2024/01/08 13:07:06;;;;;;;7.03;6.63;;;;;;;;;;6153799;28;20043;-94
2024/01/08 13:10:09;;;;;;;7.05;6.75;;;;;;;;;;6150777;28;20221;-94
2024/01/08 13:13:11;;;;;;;6.55;6.25;;;;;;;;;;6141439;28;20051;-96
2024/01/08 13:16:12;;;;;;;7.75;7.35;;;;;;;;;;6136888;28;20486;-95
2024/01/08 13:19:15;;;;;;;7.72;7.32;;;;;;;;;;6133996;28;20059;-95
2024/01/08 13:22:17;;;;;;;7.18;6.88;;;;;;;;;;6140018;28;20490;-94
2024/01/08 13:25:20;;;;;;;7.28;6.88;;;;;;;;;;6125428;28;20047;-95
2024/01/08 13:28:22;;;;;;;6.57;6.28;;;;;;;;;;6143743;28;20047;-96
2024/01/08 13:31:24;;;;;;;7.30;6.88;;;;;;;;;;6143256;28;20047;-96
2024/01/08 13:34:26;;;;;;;6.88;6.47;;;;;;;;;;6141057;28;20777;-95
2024/01/08 13:37:28;;;;;;;6.60;6.30;;;;;;;;;;6138871;29;20050;-96
2024/01/08 13:40:31;;;;;;;7.45;7.10;;;;;;;;;;6136138;28;20036;-95
2024/01/08 13:43:33;;;;;;;7.25;6.75;;;;;;;;;;6124203;29;20047;-94
2024/01/08 13:46:36;;;;;;;6.93;6.63;;;;;;;;;;6139638;28;20517;-95
2024/01/08 13:49:38;;;;;;;8.05;7.60;;;;;;;;;;6140523;28;20079;-94
2024/01/08 13:52:40;;;;;;;6.07;5.80;;;;;;;;;;6132299;29;20043;-95
2024/01/08 13:55:41;;;;;;;6.63;6.32;;;;;;;;;;6135325;28;20047;-96
2024/01/08 13:58:43;;;;;;;7.32;6.93;;;;;;;;;;6142260;28;20051;-95
2024/01/08 14:01:45;;;;;;;7.10;6.80;;;;;;;;;;6122532;29;20078;-96
2024/01/08 14:04:48;;;;;;;6.75;6.45;;;;;;;;;;6141683;28;20256;-95
2024/01/08 14:07:51;;;;;;;6.72;6.50;;;;;;;;;;6140742;28;20047;-93
2024/01/08 14:10:53;;;;;;;7.00;6.70;;;;;;;;;;6132410;28;20592;-95
2024/01/08 14:13:55;;;;;;;6.55;6.25;;;;;;;;;;6144049;28;20055;-95
2024/01/08 14:16:58;;;;;;;7.10;6.80;;;;;;;;;;6151822;28;20054;-96
2024/01/08 14:20:00;;;;;;;6.32;6.13;;;;;;;;;;6128134;28;20074;-94
2024/01/08 14:23:02;;;;;;;8.35;7.93;;;;;;;;;;6142283;29;20304;-96
2024/01/08 14:26:05;;;;;;;6.07;5.88;;;;;;;;;;6139045;28;20422;-95
2024/01/08 14:29:07;;;;;;;6.68;6.38;;;;;;;;;;6131459;28;20047;-93
2024/01/08 14:32:09;;;;;;;7.50;7.20;;;;;;;;;;6140199;28;20122;-94
2024/01/08 14:35:12;;;;;;;6.10;5.90;;;;;;;;;;6134703;28;20547;-95
2024/01/08 14:38:14;;;;;;;8.23;7.65;;;;;;;;;;6152293;28;20055;-95
2024/01/08 14:41:19;;;;;;;6.55;6.28;;;;;;;;;;6145507;28;20577;-94
2024/01/08 14:44:21;;;;;;;7.15;6.78;;;;;;;;;;6139908;28;20051;-94
2024/01/08 14:47:23;;;;;;;6.03;5.72;;;;;;;;;;6140937;29;20043;-95
2024/01/08 14:50:26;;;;;;;6.38;6.18;;;;;;;;;;6138283;28;20090;-94
2024/01/08 14:53:40;;;;;;;8.27;7.38;;;;;;;;;;6139624;28;20066;-93
2024/01/08 14:56:42;;;;;;;7.03;6.60;;;;;;;;;;6138401;28;20059;-95
2024/01/08 14:59:44;;;;;;;7.78;7.38;;;;;;;;;;6137337;28;20401;-95
2024/01/08 15:02:46;;;;;;;6.78;6.38;;;;;;;;;;6133626;28;20055;-95
2024/01/08 15:05:48;;;;;;;6.30;6.10;;;;;;;;;;6132738;28;20538;-95
2024/01/08 15:08:51;;;;;;;7.20;6.80;;;;;;;;;;6133232;29;20426;-96
2024/01/08 15:11:54;;;;;;;6.50;6.15;;;;;;;;;;6126756;29;20604;-96
2024/01/08 15:14:56;;;;;;;6.03;5.82;;;;;;;;;;6136327;28;20051;-96
2024/01/08 15:17:58;;;;;;;6.82;6.43;;;;;;;;;;6136127;29;20051;-96
2024/01/08 15:21:01;;;;;;;7.15;6.75;;;;;;;;;;6143889;28;20104;-96
2024/01/08 15:24:03;;;;;;;7.28;6.88;;;;;;;;;;6133578;28;20533;-96
2024/01/08 15:27:07;;;;;;;7.18;6.85;;;;;;;;;;6137778;28;20053;-96
2024/01/08 15:30:13;;;;;;;8.05;7.55;;;;;;;;;;6133785;28;20051;-96
2024/01/08 15:33:16;;;;;;;8.02;7.55;;;;;;;;;;6142841;28;20047;-95
2024/01/08 15:36:19;;;;;;;7.15;6.75;;;;;;;;;;6135136;28;20517;-95
2024/01/08 15:39:21;;;;;;;6.35;6.07;;;;;;;;;;6140106;28;20053;-95
2024/01/08 15:42:23;;;;;;;7.53;7.10;;;;;;;;;;6139619;28;20039;-95
2024/01/08 15:45:25;;;;;;;6.82;6.53;;;;;;;;;;6131120;28;20532;-96
2024/01/08 15:48:28;;;;;;;6.00;5.78;;;;;;;;;;6136316;28;20044;-95
2024/01/08 15:51:30;;;;;;;6.95;6.65;;;;;;;;;;6123797;28;20055;-94
2024/01/08 15:54:32;;;;;;;6.95;6.55;;;;;;;;;;6143047;28;20110;-95
2024/01/08 15:57:34;;;;;;;6.63;6.32;;;;;;;;;;6137746;29;20563;-95
2024/01/08 16:00:35;;;;;;;7.20;6.75;;;;;;;;;;6138502;28;20055;-95
2024/01/08 16:03:37;;;;;;;7.75;7.25;;;;;;;;;;6141031;28;20058;-95
2024/01/08 16:06:39;;;;;;;7.68;7.03;;;;;;;;;;6150024;28;20043;-94
2024/01/08 16:09:41;;;;;;;8.60;6.63;;;;;;;;;;6140850;28;20059;-95
2024/01/08 16:12:44;;;;;;;7.03;6.72;;;;;;;;;;6141804;29;20035;-95
2024/01/08 16:15:46;;;;;;;6.63;6.13;;;;;;;;;;6134529;28;20057;-95
2024/01/08 16:18:48;;;;;;;7.65;7.25;;;;;;;;;;6139099;28;20133;-95
2024/01/08 16:21:50;;;;;;;6.80;6.28;;;;;;;;;;6124541;29;20063;-94
2024/01/08 16:24:52;;;;;;;7.85;7.25;;;;;;;;;;6138067;28;20051;-95
2024/01/08 16:27:54;;;;;;;6.97;6.72;;;;;;;;;;6139987;28;20054;-94
2024/01/08 16:30:57;;;;;;;7.28;6.60;;;;;;;;;;6138257;29;20475;-95
2024/01/08 16:33:58;;;;;;;7.85;7.45;;;;;;;;;;6140435;28;20039;-94
2024/01/08 16:37:01;;;;;;;6.70;6.32;;;;;;;;;;6140197;28;20105;-95
2024/01/08 16:40:03;;;;;;;7.93;7.53;;;;;;;;;;6157433;28;20572;-96
2024/01/08 16:43:05;;;;;;;8.10;7.70;;;;;;;;;;6141035;28;20610;-96
2024/01/08 16:46:07;;;;;;;7.40;7.00;;;;;;;;;;6131678;28;20540;-96
2024/01/08 16:49:09;;;;;;;7.38;7.07;;;;;;;;;;6155382;28;20110;-96
2024/01/08 16:52:11;;;;;;;7.65;6.93;;;;;;;;;;6159112;28;20074;-96
2024/01/08 16:55:15;;;;;;;7.55;7.05;;;;;;;;;;6136222;29;20074;-96
2024/01/08 16:58:17;;;;;;;8.30;7.80;;;;;;;;;;6138586;29;20074;-96
2024/01/08 17:01:22;;;;;;;11.60;7.82;;;;;;;;;;6137610;28;21140;-96
2024/01/08 17:04:24;;;;;;;8.48;7.82;;;;;;;;;;6150900;28;20062;-96
2024/01/08 17:07:26;;;;;;;9.27;8.77;;;;;;;;;;6142971;28;20446;-96
2024/01/08 17:10:30;;;;;;;7.05;6.75;;;;;;;;;;6142246;28;20043;-95
2024/01/08 17:13:32;;;;;;;7.10;6.80;;;;;;;;;;6138261;28;20051;-96
2024/01/08 17:16:35;;;;;;;8.30;7.90;;;;;;;;;;6138549;28;20051;-96
2024/01/08 17:19:37;;;;;;;7.43;7.03;;;;;;;;;;6141386;28;20051;-96
2024/01/08 17:22:39;;;;;;;7.38;7.07;;;;;;;;;;6140192;28;20097;-96
2024/01/08 17:25:42;;;;;;;7.35;6.85;;;;;;;;;;6144303;28;20047;-96
2024/01/08 17:28:45;;;;;;;8.50;7.85;;;;;;;;;;6140419;28;20051;-96
2024/01/08 17:31:46;;;;;;;6.68;6.40;;;;;;;;;;6154649;28;20038;-96
2024/01/08 17:34:48;;;;;;;6.00;5.80;;;;;;;;;;6143507;28;20150;-96
2024/01/08 17:37:50;;;;;;;6.63;6.38;;;;;;;;;;6126908;29;20044;-96
2024/01/08 17:40:52;;;;;;;6.97;6.68;;;;;;;;;;6141709;28;20409;-96
2024/01/08 17:43:54;;;;;;;7.50;7.15;;;;;;;;;;6139543;28;20569;-96
2024/01/08 17:46:58;;;;;;;7.07;6.68;;;;;;;;;;6136569;28;20040;-96
2024/01/08 17:50:00;;;;;;;7.63;7.32;;;;;;;;;;6136731;28;20122;-96
2024/01/08 17:53:03;;;;;;;6.15;5.95;;;;;;;;;;6138155;28;20117;-96
2024/01/08 17:56:06;;;;;;;7.50;7.20;;;;;;;;;;6137831;28;20051;-96
2024/01/08 17:59:08;;;;;;;7.10;6.72;;;;;;;;;;6145064;28;20054;-96
2024/01/08 18:02:10;;;;;;;7.72;7.38;;;;;;;;;;6134744;28;20097;-96
2024/01/08 18:05:13;;;;;;;7.53;7.10;;;;;;;;;;6141364;28;20054;-96
2024/01/08 18:08:15;;;;;;;7.85;7.30;;;;;;;;;;6137897;29;20045;-96